sensor_id;sensor_type;location;lat;lon;timestamp;P1;durP1;ratioP1;P2;durP2;ratioP2
4806;SDS011;2417;52.482;13.432;2023-04-15T00:01:52;120.70;;;44.67;;
4806;SDS011;2417;52.482;13.432;2023-04-15T00:04:20;121.17;;;44.20;;
4806;SDS011;2417;52.482;13.432;2023-04-15T00:06:49;128.77;;;47.63;;
4806;SDS011;2417;52.482;13.432;2023-04-15T00:09:18;139.93;;;48.80;;
4806;SDS011;2417;52.482;13.432;2023-04-15T00:11:48;123.00;;;49.30;;
4806;SDS011;2417;52.482;13.432;2023-04-15T00:14:17;140.00;;;48.50;;
4806;SDS011;2417;52.482;13.432;2023-04-15T00:16:44;145.27;;;48.40;;
4806;SDS011;2417;52.482;13.432;2023-04-15T00:19:13;141.90;;;50.73;;
4806;SDS011;2417;52.482;13.432;2023-04-15T00:21:40;154.97;;;51.03;;
4806;SDS011;2417;52.482;13.432;2023-04-15T00:24:08;140.23;;;49.47;;
4806;SDS011;2417;52.482;13.432;2023-04-15T00:26:36;139.27;;;50.20;;
4806;SDS011;2417;52.482;13.432;2023-04-15T00:29:06;130.23;;;46.90;;
4806;SDS011;2417;52.482;13.432;2023-04-15T00:31:34;141.17;;;47.80;;
4806;SDS011;2417;52.482;13.432;2023-04-15T00:34:03;136.07;;;47.50;;
4806;SDS011;2417;52.482;13.432;2023-04-15T00:36:31;139.57;;;50.70;;
4806;SDS011;2417;52.482;13.432;2023-04-15T00:39:00;136.90;;;47.50;;
4806;SDS011;2417;52.482;13.432;2023-04-15T00:41:29;131.50;;;46.70;;
4806;SDS011;2417;52.482;13.432;2023-04-15T00:43:57;132.07;;;49.00;;
4806;SDS011;2417;52.482;13.432;2023-04-15T00:46:28;134.10;;;47.10;;
4806;SDS011;2417;52.482;13.432;2023-04-15T00:48:57;150.93;;;47.47;;
4806;SDS011;2417;52.482;13.432;2023-04-15T00:51:26;150.93;;;51.33;;
4806;SDS011;2417;52.482;13.432;2023-04-15T00:53:54;152.40;;;49.10;;
4806;SDS011;2417;52.482;13.432;2023-04-15T00:56:22;138.93;;;49.00;;
4806;SDS011;2417;52.482;13.432;2023-04-15T00:58:50;137.23;;;50.00;;
4806;SDS011;2417;52.482;13.432;2023-04-15T01:01:19;151.63;;;49.97;;
4806;SDS011;2417;52.482;13.432;2023-04-15T01:03:49;155.97;;;51.87;;
4806;SDS011;2417;52.482;13.432;2023-04-15T01:06:18;149.13;;;50.97;;
4806;SDS011;2417;52.482;13.432;2023-04-15T01:08:46;149.70;;;51.57;;
4806;SDS011;2417;52.482;13.432;2023-04-15T01:11:14;140.13;;;48.33;;
4806;SDS011;2417;52.482;13.432;2023-04-15T01:13:42;146.50;;;49.60;;
4806;SDS011;2417;52.482;13.432;2023-04-15T01:16:10;155.03;;;49.27;;
4806;SDS011;2417;52.482;13.432;2023-04-15T01:18:38;147.50;;;49.70;;
4806;SDS011;2417;52.482;13.432;2023-04-15T01:21:08;163.17;;;52.17;;
4806;SDS011;2417;52.482;13.432;2023-04-15T01:23:36;145.60;;;50.47;;
4806;SDS011;2417;52.482;13.432;2023-04-15T01:26:07;167.33;;;53.20;;
4806;SDS011;2417;52.482;13.432;2023-04-15T01:28:35;155.70;;;50.70;;
4806;SDS011;2417;52.482;13.432;2023-04-15T01:31:04;167.43;;;52.90;;
4806;SDS011;2417;52.482;13.432;2023-04-15T01:33:35;147.63;;;51.13;;
4806;SDS011;2417;52.482;13.432;2023-04-15T01:36:22;155.90;;;51.77;;
4806;SDS011;2417;52.482;13.432;2023-04-15T01:38:52;156.30;;;50.93;;
4806;SDS011;2417;52.482;13.432;2023-04-15T01:41:22;148.83;;;48.10;;
4806;SDS011;2417;52.482;13.432;2023-04-15T01:43:51;155.83;;;52.10;;
4806;SDS011;2417;52.482;13.432;2023-04-15T01:46:19;165.27;;;51.40;;
4806;SDS011;2417;52.482;13.432;2023-04-15T01:48:47;172.67;;;51.70;;
4806;SDS011;2417;52.482;13.432;2023-04-15T01:51:15;167.93;;;52.10;;
4806;SDS011;2417;52.482;13.432;2023-04-15T01:53:43;154.27;;;49.83;;
4806;SDS011;2417;52.482;13.432;2023-04-15T01:56:11;155.63;;;51.67;;
4806;SDS011;2417;52.482;13.432;2023-04-15T01:58:44;162.57;;;51.87;;
4806;SDS011;2417;52.482;13.432;2023-04-15T02:01:12;157.93;;;51.20;;
4806;SDS011;2417;52.482;13.432;2023-04-15T02:03:40;175.07;;;53.03;;
4806;SDS011;2417;52.482;13.432;2023-04-15T02:06:08;158.83;;;51.63;;
4806;SDS011;2417;52.482;13.432;2023-04-15T02:08:37;160.60;;;51.67;;
4806;SDS011;2417;52.482;13.432;2023-04-15T02:11:06;167.13;;;51.80;;
4806;SDS011;2417;52.482;13.432;2023-04-15T02:13:34;161.13;;;52.77;;
4806;SDS011;2417;52.482;13.432;2023-04-15T02:16:04;174.53;;;52.13;;
4806;SDS011;2417;52.482;13.432;2023-04-15T02:18:43;167.47;;;53.60;;
4806;SDS011;2417;52.482;13.432;2023-04-15T02:21:11;163.57;;;53.53;;
4806;SDS011;2417;52.482;13.432;2023-04-15T02:23:39;164.47;;;53.37;;
4806;SDS011;2417;52.482;13.432;2023-04-15T02:26:06;169.93;;;51.67;;
4806;SDS011;2417;52.482;13.432;2023-04-15T02:28:34;148.50;;;49.20;;
4806;SDS011;2417;52.482;13.432;2023-04-15T02:31:05;179.10;;;58.57;;
4806;SDS011;2417;52.482;13.432;2023-04-15T02:33:33;174.10;;;52.20;;
4806;SDS011;2417;52.482;13.432;2023-04-15T02:36:02;175.87;;;52.30;;
4806;SDS011;2417;52.482;13.432;2023-04-15T02:38:30;161.43;;;50.57;;
4806;SDS011;2417;52.482;13.432;2023-04-15T02:40:58;161.20;;;50.57;;
4806;SDS011;2417;52.482;13.432;2023-04-15T02:43:27;162.00;;;51.80;;
4806;SDS011;2417;52.482;13.432;2023-04-15T02:45:55;171.97;;;52.87;;
4806;SDS011;2417;52.482;13.432;2023-04-15T02:48:24;159.17;;;51.77;;
4806;SDS011;2417;52.482;13.432;2023-04-15T02:50:53;153.20;;;54.03;;
4806;SDS011;2417;52.482;13.432;2023-04-15T02:53:37;170.17;;;52.10;;
4806;SDS011;2417;52.482;13.432;2023-04-15T02:56:05;164.83;;;49.80;;
4806;SDS011;2417;52.482;13.432;2023-04-15T02:58:34;160.03;;;50.40;;
4806;SDS011;2417;52.482;13.432;2023-04-15T03:01:02;150.40;;;50.13;;
4806;SDS011;2417;52.482;13.432;2023-04-15T03:03:32;156.03;;;49.10;;
4806;SDS011;2417;52.482;13.432;2023-04-15T03:06:00;144.63;;;50.10;;
4806;SDS011;2417;52.482;13.432;2023-04-15T03:08:28;155.40;;;51.10;;
4806;SDS011;2417;52.482;13.432;2023-04-15T03:10:56;164.60;;;51.93;;
4806;SDS011;2417;52.482;13.432;2023-04-15T03:13:26;149.20;;;51.13;;
4806;SDS011;2417;52.482;13.432;2023-04-15T03:15:56;145.83;;;48.87;;
4806;SDS011;2417;52.482;13.432;2023-04-15T03:18:26;145.70;;;50.20;;
4806;SDS011;2417;52.482;13.432;2023-04-15T03:20:59;149.40;;;49.40;;
4806;SDS011;2417;52.482;13.432;2023-04-15T03:23:29;140.03;;;48.07;;
4806;SDS011;2417;52.482;13.432;2023-04-15T03:26:00;133.70;;;46.43;;
4806;SDS011;2417;52.482;13.432;2023-04-15T03:28:29;136.27;;;48.03;;
4806;SDS011;2417;52.482;13.432;2023-04-15T03:30:58;142.33;;;46.37;;
4806;SDS011;2417;52.482;13.432;2023-04-15T03:33:26;135.37;;;46.77;;
4806;SDS011;2417;52.482;13.432;2023-04-15T03:35:54;138.87;;;47.20;;
4806;SDS011;2417;52.482;13.432;2023-04-15T03:38:24;125.67;;;47.30;;
4806;SDS011;2417;52.482;13.432;2023-04-15T03:40:52;134.93;;;46.23;;
4806;SDS011;2417;52.482;13.432;2023-04-15T03:43:20;127.90;;;44.93;;
4806;SDS011;2417;52.482;13.432;2023-04-15T03:45:48;135.50;;;47.83;;
4806;SDS011;2417;52.482;13.432;2023-04-15T03:48:16;140.53;;;45.63;;
4806;SDS011;2417;52.482;13.432;2023-04-15T03:50:44;141.07;;;47.77;;
4806;SDS011;2417;52.482;13.432;2023-04-15T03:53:13;121.20;;;45.60;;
4806;SDS011;2417;52.482;13.432;2023-04-15T03:55:42;126.23;;;46.10;;
4806;SDS011;2417;52.482;13.432;2023-04-15T03:58:10;130.67;;;46.80;;
4806;SDS011;2417;52.482;13.432;2023-04-15T04:00:38;123.90;;;45.73;;
4806;SDS011;2417;52.482;13.432;2023-04-15T04:03:06;118.27;;;45.37;;
4806;SDS011;2417;52.482;13.432;2023-04-15T04:05:35;109.67;;;44.50;;
4806;SDS011;2417;52.482;13.432;2023-04-15T04:08:04;120.20;;;45.90;;
4806;SDS011;2417;52.482;13.432;2023-04-15T04:10:32;117.87;;;44.47;;
4806;SDS011;2417;52.482;13.432;2023-04-15T04:13:01;119.07;;;44.93;;
4806;SDS011;2417;52.482;13.432;2023-04-15T04:15:29;109.93;;;44.30;;
4806;SDS011;2417;52.482;13.432;2023-04-15T04:17:57;119.30;;;44.00;;
4806;SDS011;2417;52.482;13.432;2023-04-15T04:20:25;111.53;;;44.27;;
4806;SDS011;2417;52.482;13.432;2023-04-15T04:22:53;116.03;;;43.83;;
4806;SDS011;2417;52.482;13.432;2023-04-15T04:25:21;105.80;;;41.50;;
4806;SDS011;2417;52.482;13.432;2023-04-15T04:27:50;111.07;;;42.83;;
4806;SDS011;2417;52.482;13.432;2023-04-15T04:30:19;103.90;;;42.87;;
4806;SDS011;2417;52.482;13.432;2023-04-15T04:32:46;102.27;;;40.40;;
4806;SDS011;2417;52.482;13.432;2023-04-15T04:35:16;107.13;;;43.93;;
4806;SDS011;2417;52.482;13.432;2023-04-15T04:37:44;99.37;;;40.80;;
4806;SDS011;2417;52.482;13.432;2023-04-15T04:40:12;93.97;;;40.13;;
4806;SDS011;2417;52.482;13.432;2023-04-15T04:42:40;104.23;;;40.10;;
4806;SDS011;2417;52.482;13.432;2023-04-15T04:45:08;89.60;;;38.93;;
4806;SDS011;2417;52.482;13.432;2023-04-15T04:47:38;87.27;;;39.60;;
4806;SDS011;2417;52.482;13.432;2023-04-15T04:50:06;91.37;;;40.10;;
4806;SDS011;2417;52.482;13.432;2023-04-15T04:52:34;90.63;;;38.77;;
4806;SDS011;2417;52.482;13.432;2023-04-15T04:55:02;83.90;;;36.27;;
4806;SDS011;2417;52.482;13.432;2023-04-15T04:57:30;84.10;;;35.50;;
4806;SDS011;2417;52.482;13.432;2023-04-15T04:59:58;80.87;;;34.90;;
4806;SDS011;2417;52.482;13.432;2023-04-15T05:02:26;81.27;;;35.60;;
4806;SDS011;2417;52.482;13.432;2023-04-15T05:04:55;84.57;;;35.57;;
4806;SDS011;2417;52.482;13.432;2023-04-15T05:07:23;74.97;;;36.20;;
4806;SDS011;2417;52.482;13.432;2023-04-15T05:09:51;76.37;;;34.03;;
4806;SDS011;2417;52.482;13.432;2023-04-15T05:12:19;77.60;;;34.17;;
4806;SDS011;2417;52.482;13.432;2023-04-15T05:14:47;78.90;;;33.63;;
4806;SDS011;2417;52.482;13.432;2023-04-15T05:17:15;74.27;;;33.13;;
4806;SDS011;2417;52.482;13.432;2023-04-15T05:19:42;75.67;;;34.20;;
4806;SDS011;2417;52.482;13.432;2023-04-15T05:22:12;76.17;;;34.47;;
4806;SDS011;2417;52.482;13.432;2023-04-15T05:24:40;66.47;;;31.70;;
4806;SDS011;2417;52.482;13.432;2023-04-15T05:27:08;64.83;;;32.07;;
4806;SDS011;2417;52.482;13.432;2023-04-15T05:29:37;65.70;;;32.30;;
4806;SDS011;2417;52.482;13.432;2023-04-15T05:32:05;61.97;;;31.10;;
4806;SDS011;2417;52.482;13.432;2023-04-15T05:34:33;64.50;;;32.63;;
4806;SDS011;2417;52.482;13.432;2023-04-15T05:37:01;61.63;;;31.57;;
4806;SDS011;2417;52.482;13.432;2023-04-15T05:39:31;59.30;;;30.77;;
4806;SDS011;2417;52.482;13.432;2023-04-15T05:41:59;61.33;;;30.87;;
4806;SDS011;2417;52.482;13.432;2023-04-15T05:44:27;55.47;;;30.60;;
4806;SDS011;2417;52.482;13.432;2023-04-15T05:46:56;56.63;;;30.93;;
4806;SDS011;2417;52.482;13.432;2023-04-15T05:49:24;56.63;;;30.60;;
4806;SDS011;2417;52.482;13.432;2023-04-15T05:51:52;55.60;;;30.60;;
4806;SDS011;2417;52.482;13.432;2023-04-15T05:54:19;57.57;;;29.47;;
4806;SDS011;2417;52.482;13.432;2023-04-15T05:56:49;53.17;;;29.97;;
4806;SDS011;2417;52.482;13.432;2023-04-15T05:59:17;56.30;;;30.70;;
4806;SDS011;2417;52.482;13.432;2023-04-15T06:01:45;52.10;;;27.53;;
4806;SDS011;2417;52.482;13.432;2023-04-15T06:04:13;54.47;;;28.30;;
4806;SDS011;2417;52.482;13.432;2023-04-15T06:06:41;54.47;;;29.17;;
4806;SDS011;2417;52.482;13.432;2023-04-15T06:09:09;56.60;;;29.50;;
4806;SDS011;2417;52.482;13.432;2023-04-15T06:11:37;54.53;;;28.47;;
4806;SDS011;2417;52.482;13.432;2023-04-15T06:14:06;46.83;;;27.30;;
4806;SDS011;2417;52.482;13.432;2023-04-15T06:16:34;50.50;;;26.10;;
4806;SDS011;2417;52.482;13.432;2023-04-15T06:19:03;48.90;;;26.00;;
4806;SDS011;2417;52.482;13.432;2023-04-15T06:21:32;50.00;;;26.30;;
4806;SDS011;2417;52.482;13.432;2023-04-15T06:24:00;52.03;;;26.23;;
4806;SDS011;2417;52.482;13.432;2023-04-15T06:26:29;43.07;;;24.30;;
4806;SDS011;2417;52.482;13.432;2023-04-15T06:28:57;46.00;;;26.63;;
4806;SDS011;2417;52.482;13.432;2023-04-15T06:31:26;46.60;;;25.43;;
4806;SDS011;2417;52.482;13.432;2023-04-15T06:33:55;45.20;;;25.40;;
4806;SDS011;2417;52.482;13.432;2023-04-15T06:36:22;42.23;;;24.23;;
4806;SDS011;2417;52.482;13.432;2023-04-15T06:38:50;42.53;;;24.60;;
4806;SDS011;2417;52.482;13.432;2023-04-15T06:41:18;47.10;;;24.40;;
4806;SDS011;2417;52.482;13.432;2023-04-15T06:43:46;42.67;;;25.70;;
4806;SDS011;2417;52.482;13.432;2023-04-15T06:46:14;39.70;;;24.47;;
4806;SDS011;2417;52.482;13.432;2023-04-15T06:48:43;45.83;;;25.20;;
4806;SDS011;2417;52.482;13.432;2023-04-15T06:51:11;40.63;;;23.70;;
4806;SDS011;2417;52.482;13.432;2023-04-15T06:53:39;44.13;;;22.80;;
4806;SDS011;2417;52.482;13.432;2023-04-15T06:56:09;43.70;;;24.67;;
4806;SDS011;2417;52.482;13.432;2023-04-15T06:58:37;40.03;;;23.30;;
4806;SDS011;2417;52.482;13.432;2023-04-15T07:01:04;41.70;;;23.50;;
4806;SDS011;2417;52.482;13.432;2023-04-15T07:03:32;36.77;;;21.43;;
4806;SDS011;2417;52.482;13.432;2023-04-15T07:06:02;32.97;;;20.40;;
4806;SDS011;2417;52.482;13.432;2023-04-15T07:08:32;32.80;;;20.40;;
4806;SDS011;2417;52.482;13.432;2023-04-15T07:11:00;32.37;;;20.87;;
4806;SDS011;2417;52.482;13.432;2023-04-15T07:13:29;30.90;;;19.80;;
4806;SDS011;2417;52.482;13.432;2023-04-15T07:15:58;30.70;;;19.93;;
4806;SDS011;2417;52.482;13.432;2023-04-15T07:18:26;32.00;;;19.87;;
4806;SDS011;2417;52.482;13.432;2023-04-15T07:20:54;32.07;;;20.27;;
4806;SDS011;2417;52.482;13.432;2023-04-15T07:23:23;35.30;;;19.97;;
4806;SDS011;2417;52.482;13.432;2023-04-15T07:25:51;37.87;;;18.47;;
4806;SDS011;2417;52.482;13.432;2023-04-15T07:28:19;31.93;;;17.97;;
4806;SDS011;2417;52.482;13.432;2023-04-15T07:30:47;28.03;;;18.10;;
4806;SDS011;2417;52.482;13.432;2023-04-15T07:33:15;28.60;;;17.60;;
4806;SDS011;2417;52.482;13.432;2023-04-15T07:35:43;31.50;;;19.23;;
4806;SDS011;2417;52.482;13.432;2023-04-15T07:38:12;26.23;;;17.33;;
4806;SDS011;2417;52.482;13.432;2023-04-15T07:40:41;29.40;;;18.10;;
4806;SDS011;2417;52.482;13.432;2023-04-15T07:43:09;28.17;;;17.73;;
4806;SDS011;2417;52.482;13.432;2023-04-15T07:45:37;31.50;;;17.33;;
4806;SDS011;2417;52.482;13.432;2023-04-15T07:48:05;30.53;;;17.90;;
4806;SDS011;2417;52.482;13.432;2023-04-15T07:50:33;32.13;;;17.63;;
4806;SDS011;2417;52.482;13.432;2023-04-15T07:53:01;27.63;;;16.97;;
4806;SDS011;2417;52.482;13.432;2023-04-15T07:55:29;27.13;;;17.57;;
4806;SDS011;2417;52.482;13.432;2023-04-15T07:57:58;29.70;;;16.30;;
4806;SDS011;2417;52.482;13.432;2023-04-15T08:00:26;28.57;;;17.83;;
4806;SDS011;2417;52.482;13.432;2023-04-15T08:02:55;29.30;;;18.10;;
4806;SDS011;2417;52.482;13.432;2023-04-15T08:05:25;42.30;;;19.40;;
4806;SDS011;2417;52.482;13.432;2023-04-15T08:07:52;25.70;;;16.80;;
4806;SDS011;2417;52.482;13.432;2023-04-15T08:10:21;95.23;;;36.40;;
4806;SDS011;2417;52.482;13.432;2023-04-15T08:12:49;67.40;;;29.63;;
4806;SDS011;2417;52.482;13.432;2023-04-15T08:15:21;46.20;;;22.87;;
4806;SDS011;2417;52.482;13.432;2023-04-15T08:17:49;30.57;;;19.40;;
4806;SDS011;2417;52.482;13.432;2023-04-15T08:20:17;38.57;;;22.33;;
4806;SDS011;2417;52.482;13.432;2023-04-15T08:22:46;48.77;;;25.10;;
4806;SDS011;2417;52.482;13.432;2023-04-15T08:25:17;67.17;;;29.93;;
4806;SDS011;2417;52.482;13.432;2023-04-15T08:27:46;88.20;;;38.37;;
4806;SDS011;2417;52.482;13.432;2023-04-15T08:30:14;31.20;;;19.00;;
4806;SDS011;2417;52.482;13.432;2023-04-15T08:32:45;31.97;;;19.10;;
4806;SDS011;2417;52.482;13.432;2023-04-15T08:35:13;29.33;;;18.33;;
4806;SDS011;2417;52.482;13.432;2023-04-15T08:37:41;31.33;;;18.90;;
4806;SDS011;2417;52.482;13.432;2023-04-15T08:40:10;29.00;;;18.90;;
4806;SDS011;2417;52.482;13.432;2023-04-15T08:42:40;28.20;;;18.70;;
4806;SDS011;2417;52.482;13.432;2023-04-15T08:45:10;27.87;;;18.63;;
4806;SDS011;2417;52.482;13.432;2023-04-15T08:47:38;28.70;;;19.90;;
4806;SDS011;2417;52.482;13.432;2023-04-15T08:50:09;36.57;;;21.43;;
4806;SDS011;2417;52.482;13.432;2023-04-15T08:52:37;33.63;;;20.33;;
4806;SDS011;2417;52.482;13.432;2023-04-15T08:55:05;33.53;;;21.97;;
4806;SDS011;2417;52.482;13.432;2023-04-15T08:57:35;35.90;;;21.13;;
4806;SDS011;2417;52.482;13.432;2023-04-15T09:00:03;34.40;;;21.87;;
4806;SDS011;2417;52.482;13.432;2023-04-15T09:02:32;37.67;;;23.33;;
4806;SDS011;2417;52.482;13.432;2023-04-15T09:05:00;34.50;;;23.00;;
4806;SDS011;2417;52.482;13.432;2023-04-15T09:07:33;38.03;;;22.93;;
4806;SDS011;2417;52.482;13.432;2023-04-15T09:10:02;34.77;;;22.70;;
4806;SDS011;2417;52.482;13.432;2023-04-15T09:12:32;36.13;;;23.60;;
4806;SDS011;2417;52.482;13.432;2023-04-15T09:15:00;39.80;;;24.30;;
4806;SDS011;2417;52.482;13.432;2023-04-15T09:17:29;39.67;;;25.03;;
4806;SDS011;2417;52.482;13.432;2023-04-15T09:20:09;36.00;;;24.27;;
4806;SDS011;2417;52.482;13.432;2023-04-15T09:22:39;38.27;;;25.17;;
4806;SDS011;2417;52.482;13.432;2023-04-15T09:27:52;31.77;;;20.90;;
4806;SDS011;2417;52.482;13.432;2023-04-15T09:30:20;35.43;;;22.77;;
4806;SDS011;2417;52.482;13.432;2023-04-15T09:32:50;35.43;;;23.30;;
4806;SDS011;2417;52.482;13.432;2023-04-15T09:35:19;41.93;;;24.77;;
4806;SDS011;2417;52.482;13.432;2023-04-15T09:37:48;34.13;;;22.47;;
4806;SDS011;2417;52.482;13.432;2023-04-15T09:40:29;37.83;;;24.03;;
4806;SDS011;2417;52.482;13.432;2023-04-15T09:42:58;37.80;;;23.70;;
4806;SDS011;2417;52.482;13.432;2023-04-15T09:45:27;43.50;;;23.17;;
4806;SDS011;2417;52.482;13.432;2023-04-15T09:47:57;36.90;;;23.17;;
4806;SDS011;2417;52.482;13.432;2023-04-15T09:50:26;32.83;;;22.37;;
4806;SDS011;2417;52.482;13.432;2023-04-15T09:52:56;34.20;;;22.83;;
4806;SDS011;2417;52.482;13.432;2023-04-15T09:55:25;35.90;;;22.43;;
4806;SDS011;2417;52.482;13.432;2023-04-15T09:57:53;38.67;;;23.90;;
4806;SDS011;2417;52.482;13.432;2023-04-15T10:00:21;33.63;;;22.27;;
4806;SDS011;2417;52.482;13.432;2023-04-15T10:02:48;37.57;;;24.00;;
4806;SDS011;2417;52.482;13.432;2023-04-15T10:05:17;42.63;;;26.57;;
4806;SDS011;2417;52.482;13.432;2023-04-15T10:07:45;37.40;;;23.30;;
4806;SDS011;2417;52.482;13.432;2023-04-15T10:10:15;35.93;;;23.80;;
4806;SDS011;2417;52.482;13.432;2023-04-15T10:12:45;37.60;;;24.00;;
4806;SDS011;2417;52.482;13.432;2023-04-15T10:15:13;39.10;;;25.10;;
4806;SDS011;2417;52.482;13.432;2023-04-15T10:17:42;35.60;;;24.70;;
4806;SDS011;2417;52.482;13.432;2023-04-15T10:20:11;38.90;;;25.53;;
4806;SDS011;2417;52.482;13.432;2023-04-15T10:22:40;39.70;;;25.70;;
4806;SDS011;2417;52.482;13.432;2023-04-15T10:25:08;41.90;;;25.37;;
4806;SDS011;2417;52.482;13.432;2023-04-15T10:27:39;37.03;;;23.93;;
4806;SDS011;2417;52.482;13.432;2023-04-15T10:30:08;42.50;;;24.90;;
4806;SDS011;2417;52.482;13.432;2023-04-15T10:32:37;40.40;;;25.67;;
4806;SDS011;2417;52.482;13.432;2023-04-15T10:35:05;42.43;;;25.70;;
4806;SDS011;2417;52.482;13.432;2023-04-15T10:37:34;40.90;;;25.83;;
4806;SDS011;2417;52.482;13.432;2023-04-15T10:42:51;36.73;;;23.93;;
4806;SDS011;2417;52.482;13.432;2023-04-15T10:45:19;37.53;;;24.33;;
4806;SDS011;2417;52.482;13.432;2023-04-15T10:47:50;39.73;;;22.33;;
4806;SDS011;2417;52.482;13.432;2023-04-15T10:50:18;35.67;;;23.23;;
4806;SDS011;2417;52.482;13.432;2023-04-15T10:52:49;35.73;;;23.17;;
4806;SDS011;2417;52.482;13.432;2023-04-15T10:55:18;34.40;;;22.77;;
4806;SDS011;2417;52.482;13.432;2023-04-15T10:57:46;33.93;;;22.37;;
4806;SDS011;2417;52.482;13.432;2023-04-15T11:00:19;32.47;;;22.07;;
4806;SDS011;2417;52.482;13.432;2023-04-15T11:02:50;38.87;;;23.57;;
4806;SDS011;2417;52.482;13.432;2023-04-15T11:05:19;39.13;;;23.90;;
4806;SDS011;2417;52.482;13.432;2023-04-15T11:07:48;35.50;;;22.50;;
4806;SDS011;2417;52.482;13.432;2023-04-15T11:13:27;41.07;;;24.90;;
4806;SDS011;2417;52.482;13.432;2023-04-15T11:16:01;37.60;;;24.63;;
4806;SDS011;2417;52.482;13.432;2023-04-15T11:18:30;39.70;;;25.70;;
4806;SDS011;2417;52.482;13.432;2023-04-15T11:20:59;40.63;;;25.03;;
4806;SDS011;2417;52.482;13.432;2023-04-15T11:23:29;45.23;;;26.73;;
4806;SDS011;2417;52.482;13.432;2023-04-15T11:25:58;39.00;;;24.77;;
4806;SDS011;2417;52.482;13.432;2023-04-15T11:28:27;43.93;;;25.67;;
4806;SDS011;2417;52.482;13.432;2023-04-15T11:30:55;41.47;;;24.67;;
4806;SDS011;2417;52.482;13.432;2023-04-15T11:33:24;37.97;;;22.93;;
4806;SDS011;2417;52.482;13.432;2023-04-15T11:35:56;38.67;;;24.60;;
4806;SDS011;2417;52.482;13.432;2023-04-15T11:38:25;39.47;;;23.27;;
4806;SDS011;2417;52.482;13.432;2023-04-15T11:40:53;38.10;;;22.70;;
4806;SDS011;2417;52.482;13.432;2023-04-15T11:43:21;43.00;;;26.10;;
4806;SDS011;2417;52.482;13.432;2023-04-15T11:45:50;43.10;;;25.80;;
4806;SDS011;2417;52.482;13.432;2023-04-15T11:48:20;40.83;;;24.60;;
4806;SDS011;2417;52.482;13.432;2023-04-15T11:50:53;37.63;;;23.73;;
4806;SDS011;2417;52.482;13.432;2023-04-15T11:53:21;38.67;;;23.80;;
4806;SDS011;2417;52.482;13.432;2023-04-15T11:55:50;40.87;;;25.17;;
4806;SDS011;2417;52.482;13.432;2023-04-15T11:58:19;40.87;;;24.97;;
4806;SDS011;2417;52.482;13.432;2023-04-15T12:00:48;39.13;;;24.00;;
4806;SDS011;2417;52.482;13.432;2023-04-15T12:03:17;36.70;;;24.17;;
4806;SDS011;2417;52.482;13.432;2023-04-15T12:08:48;32.97;;;21.30;;
4806;SDS011;2417;52.482;13.432;2023-04-15T12:11:16;36.47;;;22.60;;
4806;SDS011;2417;52.482;13.432;2023-04-15T12:13:44;37.43;;;23.87;;
4806;SDS011;2417;52.482;13.432;2023-04-15T12:16:15;37.83;;;23.33;;
4806;SDS011;2417;52.482;13.432;2023-04-15T12:18:46;38.60;;;24.23;;
4806;SDS011;2417;52.482;13.432;2023-04-15T12:21:15;41.00;;;23.50;;
4806;SDS011;2417;52.482;13.432;2023-04-15T12:23:50;38.60;;;23.57;;
4806;SDS011;2417;52.482;13.432;2023-04-15T12:26:24;41.57;;;26.27;;
4806;SDS011;2417;52.482;13.432;2023-04-15T12:28:54;35.13;;;23.50;;
4806;SDS011;2417;52.482;13.432;2023-04-15T12:31:24;39.37;;;24.67;;
4806;SDS011;2417;52.482;13.432;2023-04-15T12:33:53;42.93;;;25.00;;
4806;SDS011;2417;52.482;13.432;2023-04-15T12:36:21;51.50;;;27.90;;
4806;SDS011;2417;52.482;13.432;2023-04-15T12:38:51;46.03;;;26.07;;
4806;SDS011;2417;52.482;13.432;2023-04-15T12:41:19;37.57;;;23.50;;
4806;SDS011;2417;52.482;13.432;2023-04-15T12:43:54;40.47;;;23.93;;
4806;SDS011;2417;52.482;13.432;2023-04-15T12:46:25;38.43;;;22.33;;
4806;SDS011;2417;52.482;13.432;2023-04-15T12:48:54;40.00;;;23.93;;
4806;SDS011;2417;52.482;13.432;2023-04-15T12:51:23;41.67;;;25.30;;
4806;SDS011;2417;52.482;13.432;2023-04-15T12:53:57;37.70;;;23.93;;
4806;SDS011;2417;52.482;13.432;2023-04-15T12:56:25;45.30;;;27.47;;
4806;SDS011;2417;52.482;13.432;2023-04-15T12:58:53;42.40;;;25.60;;
4806;SDS011;2417;52.482;13.432;2023-04-15T13:01:21;36.57;;;22.73;;
4806;SDS011;2417;52.482;13.432;2023-04-15T13:03:49;36.63;;;21.87;;
4806;SDS011;2417;52.482;13.432;2023-04-15T13:06:17;46.20;;;26.67;;
4806;SDS011;2417;52.482;13.432;2023-04-15T13:08:45;41.33;;;25.73;;
4806;SDS011;2417;52.482;13.432;2023-04-15T13:11:25;48.67;;;27.77;;
4806;SDS011;2417;52.482;13.432;2023-04-15T13:13:55;33.50;;;21.17;;
4806;SDS011;2417;52.482;13.432;2023-04-15T13:16:23;42.60;;;26.67;;
4806;SDS011;2417;52.482;13.432;2023-04-15T13:18:51;40.60;;;23.80;;
4806;SDS011;2417;52.482;13.432;2023-04-15T13:21:19;45.50;;;28.40;;
4806;SDS011;2417;52.482;13.432;2023-04-15T13:23:47;41.83;;;24.97;;
4806;SDS011;2417;52.482;13.432;2023-04-15T13:26:16;40.30;;;21.87;;
4806;SDS011;2417;52.482;13.432;2023-04-15T13:28:46;32.20;;;20.00;;
4806;SDS011;2417;52.482;13.432;2023-04-15T13:31:14;35.53;;;21.10;;
4806;SDS011;2417;52.482;13.432;2023-04-15T13:33:42;32.20;;;21.03;;
4806;SDS011;2417;52.482;13.432;2023-04-15T13:36:10;37.00;;;23.80;;
4806;SDS011;2417;52.482;13.432;2023-04-15T13:38:38;34.17;;;21.17;;
4806;SDS011;2417;52.482;13.432;2023-04-15T13:41:06;45.77;;;26.13;;
4806;SDS011;2417;52.482;13.432;2023-04-15T13:43:35;83.10;;;46.60;;
4806;SDS011;2417;52.482;13.432;2023-04-15T13:46:04;175.83;;;85.07;;
4806;SDS011;2417;52.482;13.432;2023-04-15T13:48:54;112.10;;;56.40;;
4806;SDS011;2417;52.482;13.432;2023-04-15T13:51:23;69.80;;;38.43;;
4806;SDS011;2417;52.482;13.432;2023-04-15T13:53:52;64.57;;;35.57;;
4806;SDS011;2417;52.482;13.432;2023-04-15T13:56:20;37.23;;;21.97;;
4806;SDS011;2417;52.482;13.432;2023-04-15T13:58:49;28.83;;;18.40;;
4806;SDS011;2417;52.482;13.432;2023-04-15T14:01:22;23.00;;;15.40;;
4806;SDS011;2417;52.482;13.432;2023-04-15T14:03:50;25.37;;;16.10;;
4806;SDS011;2417;52.482;13.432;2023-04-15T14:06:18;29.50;;;18.40;;
4806;SDS011;2417;52.482;13.432;2023-04-15T14:08:46;32.83;;;20.00;;
4806;SDS011;2417;52.482;13.432;2023-04-15T14:11:13;24.77;;;16.70;;
4806;SDS011;2417;52.482;13.432;2023-04-15T14:13:42;26.27;;;17.07;;
4806;SDS011;2417;52.482;13.432;2023-04-15T14:16:10;27.80;;;16.40;;
4806;SDS011;2417;52.482;13.432;2023-04-15T14:18:39;31.07;;;18.93;;
4806;SDS011;2417;52.482;13.432;2023-04-15T14:21:07;32.87;;;18.53;;
4806;SDS011;2417;52.482;13.432;2023-04-15T14:23:36;28.43;;;19.37;;
4806;SDS011;2417;52.482;13.432;2023-04-15T14:26:05;32.07;;;19.80;;
4806;SDS011;2417;52.482;13.432;2023-04-15T14:28:33;36.47;;;19.77;;
4806;SDS011;2417;52.482;13.432;2023-04-15T14:31:00;33.57;;;19.70;;
4806;SDS011;2417;52.482;13.432;2023-04-15T14:33:29;34.10;;;20.13;;
4806;SDS011;2417;52.482;13.432;2023-04-15T14:35:58;31.67;;;19.87;;
4806;SDS011;2417;52.482;13.432;2023-04-15T14:38:26;31.97;;;18.80;;
4806;SDS011;2417;52.482;13.432;2023-04-15T14:40:54;31.27;;;20.80;;
4806;SDS011;2417;52.482;13.432;2023-04-15T14:43:22;27.63;;;18.03;;
4806;SDS011;2417;52.482;13.432;2023-04-15T14:45:50;29.17;;;18.30;;
4806;SDS011;2417;52.482;13.432;2023-04-15T14:48:19;33.10;;;17.93;;
4806;SDS011;2417;52.482;13.432;2023-04-15T14:50:47;25.90;;;16.53;;
4806;SDS011;2417;52.482;13.432;2023-04-15T14:53:17;31.07;;;18.90;;